Littleton, CO (80127)

4:56 PM MST on November 22, 2014 (GMT -0700)
Mill Hollow | Change Station
CLOSE
Current Station
Personal Weather Station
Location: Littleton, CO
Elevation: 7125 ft
Nearby Weather Stations

Elev 7125 ft 39.52 °N, 105.16 °W | Updated 13 minutes ago

Overcast
Overcast
46.8 °F
Feels Like 47 °F
N
0.0
Wind Variable Wind from South
Gusts 2.0 mph

Today
High -- | Low -- °F
--% Chance of Precip.
Yesterday
High -- | Low -- °F
Precip. -- in
6:52 AM 4:40 PM
New Moon, 0% visible
Pressure 29.51 in
Visibility 10.0 miles
Clouds Scattered Clouds 12000 ft
Mostly Cloudy 16000 ft
Mostly Cloudy 20000 ft
Windchill 47 °F
Dew Point 18 °F
Humidity 32%
Rainfall 0.00 in
Snow Depth Not available.
UV 0 out of 12
Pollen .10 out of 12
Air Quality Not available.
Flu Activity Not available.
METAR KAPA 222253Z 35009KT 10SM SCT120 BKN160 BKN200 13/M08 A2959 RMK AO2 SLP992 T01331083

More Conditions Fewer Conditions

Pressure 29.51 in
Visibility 10.0 miles
Clouds Scattered Clouds 12000 ft
Mostly Cloudy 16000 ft
Mostly Cloudy 20000 ft
Windchill 47 °F
Dew Point 18 °F
Humidity 32%
Rainfall 0.00 in
Snow Depth Not available.
UV 0 out of 12
Pollen .10 out of 12
Air Quality Not available.
Flu Activity Not available.
METAR KAPA 222253Z 35009KT 10SM SCT120 BKN160 BKN200 13/M08 A2959 RMK AO2 SLP992 T01331083

More Conditions Fewer Conditions

Nowcast | as of 4:55 PM MST on November 22, 2014

Gusty west winds will continue over the Front Range foothills through the late afternoon. Expect speeds of 25 to 35 mph and gusts up to 60 mph over wind prone areas in the foothills.

×

10-Day Weather Forecast

Almanac

Astronomy

Nov. 22, 2014 Rise Set
Actual Time
Civil Twilight
Nautical Twilight
Astronomical Twilight
Moon
Length of Visible Light
Length of Day
Tomorrow will be .
, % of the Moon is Illuminated

Today's Extremes

State Highs State Lows

Community

WunderPhotos

Upload Photos

1,772,928 photos uploaded!

WunderBlogs® & News

Nearby

Air Quality

  Air Quality AQ Index Pollutant
Not available.

Snow Depth

Station Depth Elevation

Earthquake Activity

City Distance Mag. Time & Date
Minimum magnitude displayed is 2.5.

Coastal Water Temperatures

Place Temperature

Nearby Weather Stations